AirNav   Phillips 66 Aviation Fuel
 
 1115 users online  

33CO Melby Ranch Airstrip
San Luis, Colorado, USA

GOING TO SAN LUIS?


FAA INFORMATION EFFECTIVE 21 JUNE 2018

Location

FAA Identifier: 33CO
Lat/Long: 37-03-54.0000N / 105-27-49.0000W
37-03.900000N / 105-27.816667W
37.0650000 / -105.4636111
(estimated)
Elevation: 8820 ft. / 2688 m (estimated)
Variation: 11E (1995)
From city: 9 miles N of SAN LUIS, CO
Time zone: UTC -6 (UTC -7 during Standard Time)
Zip code: 81152

Airport Operations

Airport use: Private use. Permission required prior to landing
Activation date: 10/1996
Control tower: no
ARTCC: DENVER CENTER
FSS: DENVER FLIGHT SERVICE STATION
Attendance: UNATNDD
Wind indicator: yes
Segmented circle: no

Airport Communications

WX AWOS-3 at N24 (17 nm S): 118.2 (575-586-2019)

Nearby radio navigation aids

VOR radial/distance  VOR name  Freq  Var
ALSr122/23.9ALAMOSA VORTAC113.9013E
TASr025/34.7TAOS VORTAC117.6013E

Airport Services

Runway Information

Runway 3/21

Dimensions: 7400 x 40 ft. / 2256 x 12 m
Surface: turf
RUNWAY 3  RUNWAY 21
Traffic pattern: leftleft

Airport Ownership and Management from official FAA records

Ownership: Privately-owned
Owner: MELBY RANCH PROPERTIES, LLC
P.O. BOX 4159
VENTURA, CA 93007
Phone 800-858-8565
Manager: ANDREA MELBY
P.O. BOX 4159
VENTURA, CO 93007
Phone 805-647-5662

Instrument Procedures

There are no published instrument procedures at 33CO.

Some nearby airports with instrument procedures:

KALS - San Luis Valley Regional Airport/Bergman Field (29 nm NW)
KSKX - Taos Regional Airport (38 nm S)
KMVI - Monte Vista Municipal Airport (39 nm NW)
KAXX - Angel Fire Airport (39 nm S)
4V1 - Spanish Peaks Airfield (50 nm NE)
 
Loc | Ops | Rwys | IFR | FBO | Links
Com | Nav | Svcs | Stats | Notes

AirNav Hotels Sweepstakes
 
Area around 33CO (Melby Ranch Airstrip)
 
Road maps at: MapQuest Bing Google
 
Aerial photo
WARNING: Photo may not be current or correct
Aerial photo of 33CO (Melby Ranch Airstrip)
Photo by Sparky Imeson

Do you have a better or more recent aerial photo of Melby Ranch Airstrip that you would like to share? If so, please send us your photo.

 
Sectional chart

 
Airport distance calculator
Flying to Melby Ranch Airstrip? Find the distance to fly.

From to 33CO

Sunrise and sunset
Times for 23-Jun-2018
 Local
(UTC-6)
 Zulu
(UTC)
Morning civil twilight05:1311:13
Sunrise05:4411:44
Sunset20:2402:24
Evening civil twilight20:5502:55

Current date and time
Zulu (UTC)  23-Jun-2018 16:46:58
Local (UTC-6)  23-Jun-2018 10:46:58
 
METAR
3CO4 
21nm E 
SuperAWOS
231555Z AUTO 10015G22KT 10SM 22/07 A3016
CO92 
21nm E 
SuperAWOS
231555Z AUTO 19006KT 10SM 18/05 A3025
KALS 
29nm NW 
231552Z AUTO 08005KT 10SM CLR 20/M03 A3013 RMK AO2 SLP099 T02001033
KVTP 
30nm NE 
231636Z AUTO 19010G20KT 150V230 10SM CLR 19/M03 A3041 RMK AO2
KSKX 
38nm S 
231556Z AUTO 22006KT 10SM CLR 25/01 A3013 RMK AO2 SLP107 T02500006 $
KAXX 
39nm S 
231635Z AUTO 30015G20KT 10SM CLR 23/M08 A3020 RMK AO2 T02251082
TAF
KALS 
29nm NW 
231120Z 2312/2412 VRB06KT P6SM FEW200 FM231500 18007KT P6SM FEW120 FM231900 28014G24KT P6SM SCT120 SCT200 FM240200 24012KT P6SM FEW120 SCT200 FM240500 20008KT P6SM SCT200
NOTAMs
Click for the latest NOTAMs
NOTAMs are issued by the DoD/FAA and will open in a separate window not controlled by AirNav.

 

 
 

Would you like to see your business listed on this page?

 If your business provides an interesting product or service to pilots, flight crews, aircraft, or users of the Melby Ranch Airstrip, you should consider listing it here.  To start the listing process, click on the button below
 
Add a business
 

Other Pages about Melby Ranch Airstrip

www.melbyranch.com/air.htm
 
Update a link
 
Copyright © AirNav, LLC. All rights reserved. Privacy Policy  Contact